createdAt,value
2018-06-14T00:00:29.269Z,2.23
2018-06-14T00:03:00.391Z,2.63
2018-06-14T00:05:29.637Z,1.90
2018-06-14T00:08:02.159Z,2.27
2018-06-14T00:10:31.200Z,2.60
2018-06-14T00:13:07.180Z,2.10
2018-06-14T00:15:35.965Z,2.13
2018-06-14T00:18:07.295Z,2.33
2018-06-14T00:20:36.070Z,2.70
2018-06-14T00:23:11.977Z,2.27
2018-06-14T00:25:41.089Z,2.60
2018-06-14T00:29:40.788Z,2.10
2018-06-14T00:32:13.513Z,2.67
2018-06-14T00:34:42.280Z,2.30
2018-06-14T00:37:14.161Z,2.90
2018-06-14T00:39:44.453Z,2.73
2018-06-14T00:42:16.628Z,2.63
2018-06-14T00:44:45.435Z,2.33
2018-06-14T00:47:21.196Z,2.37
2018-06-14T00:49:51.822Z,2.80
2018-06-14T00:52:20.628Z,3.30
2018-06-14T00:54:49.852Z,2.60
2018-06-14T00:57:26.108Z,3.00
2018-06-14T00:59:55.102Z,2.60
2018-06-14T01:02:24.099Z,2.60
2018-06-14T01:04:52.897Z,2.47
2018-06-14T01:07:25.786Z,2.27
2018-06-14T01:09:54.561Z,2.57
2018-06-14T01:12:30.794Z,2.90
2018-06-14T01:14:59.648Z,3.20
2018-06-14T01:17:29.228Z,2.63
2018-06-14T01:19:57.996Z,2.97
2018-06-14T01:22:31.006Z,2.67
2018-06-14T01:24:59.726Z,2.70
2018-06-14T01:27:35.548Z,3.83
2018-06-14T01:30:06.143Z,2.97
2018-06-14T01:32:45.916Z,3.60
2018-06-14T01:35:16.062Z,3.30
2018-06-14T01:37:56.119Z,3.83
2018-06-14T01:40:24.916Z,3.57
2018-06-14T01:42:53.593Z,3.83
2018-06-14T01:45:22.328Z,3.53
2018-06-14T01:48:06.077Z,3.90
2018-06-14T01:50:39.890Z,3.80
2018-06-14T01:53:09.373Z,3.77
2018-06-14T01:55:43.631Z,2.97
2018-06-14T01:58:12.356Z,3.80
2018-06-14T02:00:56.840Z,4.00
2018-06-14T02:03:25.579Z,3.20
2018-06-14T02:05:54.580Z,3.90
2018-06-14T02:08:24.026Z,3.80
2018-06-14T02:10:53.189Z,4.03
2018-06-14T02:13:22.158Z,3.97
2018-06-14T02:15:53.656Z,4.10
2018-06-14T02:18:22.792Z,3.90
2018-06-14T02:20:55.929Z,4.20
2018-06-14T02:23:24.943Z,3.70
2018-06-14T02:25:57.515Z,4.20
2018-06-14T02:28:26.734Z,3.80
2018-06-14T02:31:04.162Z,4.40
2018-06-14T02:33:32.582Z,3.80
2018-06-14T02:36:03.319Z,4.47
2018-06-14T02:38:32.712Z,3.73
2018-06-14T02:41:05.466Z,4.47
2018-06-14T02:43:34.236Z,4.20
2018-06-14T02:46:06.905Z,4.10
2018-06-14T02:48:36.061Z,3.93
2018-06-14T02:51:08.496Z,4.47
2018-06-14T02:53:37.258Z,4.60
2018-06-14T02:56:13.159Z,4.57
2018-06-14T02:58:42.144Z,4.93
2018-06-14T03:01:13.071Z,4.37
2018-06-14T03:03:42.146Z,4.57
2018-06-14T03:06:17.980Z,4.23
2018-06-14T03:08:46.776Z,4.57
2018-06-14T03:11:16.953Z,4.23
2018-06-14T03:13:45.739Z,4.37
2018-06-14T03:16:18.622Z,3.80
2018-06-14T03:18:47.770Z,3.97
2018-06-14T03:21:20.397Z,5.40
2018-06-14T03:23:49.690Z,4.60
2018-06-14T03:26:23.660Z,4.87
2018-06-14T03:28:53.002Z,4.83
2018-06-14T03:31:25.414Z,4.90
2018-06-14T03:33:54.471Z,5.40
2018-06-14T03:36:27.174Z,5.10
2018-06-14T03:39:10.498Z,4.47
2018-06-14T03:41:39.528Z,5.60
2018-06-14T03:44:08.406Z,6.30
2018-06-14T03:46:53.078Z,5.70
2018-06-14T03:52:41.671Z,6.53
2018-06-14T03:55:12.647Z,6.43
2018-06-14T03:57:41.461Z,7.07
2018-06-14T04:00:10.461Z,6.90
2018-06-14T04:02:39.150Z,6.57
2018-06-14T04:05:57.683Z,5.77
2018-06-14T04:08:27.143Z,6.43
2018-06-14T04:10:55.956Z,7.50
2018-06-14T04:13:24.765Z,6.87
2018-06-14T04:15:54.071Z,6.80
2018-06-14T04:18:23.037Z,6.63
2018-06-14T04:20:52.044Z,6.47
2018-06-14T04:23:21.426Z,6.13
2018-06-14T04:25:50.289Z,6.17
2018-06-14T04:28:30.159Z,6.10
2018-06-14T04:30:59.306Z,5.70
2018-06-14T04:33:28.042Z,5.33
2018-06-14T04:38:40.805Z,5.97
2018-06-14T04:41:27.903Z,6.17
2018-06-14T04:43:57.207Z,6.70
2018-06-14T04:46:25.971Z,5.33
2018-06-14T04:48:55.678Z,6.33
2018-06-14T04:51:24.757Z,5.27
2018-06-14T04:54:08.953Z,5.73
2018-06-14T04:56:38.146Z,5.53
2018-06-14T04:59:17.478Z,5.83
2018-06-14T05:02:00.269Z,6.47
2018-06-14T05:04:40.007Z,5.80
2018-06-14T05:07:09.251Z,6.47
2018-06-14T05:09:38.015Z,6.30
2018-06-14T05:12:19.512Z,6.40
2018-06-14T05:14:49.603Z,5.97
2018-06-14T05:17:29.146Z,6.40
2018-06-14T05:19:58.305Z,5.83
2018-06-14T05:22:27.130Z,5.13
2018-06-14T05:24:55.865Z,6.60
2018-06-14T05:27:24.935Z,6.10
2018-06-14T05:29:53.972Z,5.60
2018-06-14T05:32:32.773Z,5.83
2018-06-14T05:35:01.623Z,5.23
2018-06-14T05:37:30.390Z,6.07
2018-06-14T05:39:59.178Z,5.50
2018-06-14T05:42:28.323Z,5.73
2018-06-14T05:44:57.210Z,4.83
2018-06-14T05:47:26.191Z,5.70
2018-06-14T05:49:55.265Z,5.17
2018-06-14T05:52:24.374Z,4.70
2018-06-14T05:54:53.357Z,5.03
2018-06-14T05:57:24.201Z,4.83
2018-06-14T05:59:52.963Z,5.00
2018-06-14T06:04:53.497Z,5.47
2018-06-14T06:07:29.520Z,4.83
2018-06-14T06:09:58.533Z,5.63
2018-06-14T06:12:30.826Z,5.13
2018-06-14T06:14:59.650Z,5.30
2018-06-14T06:17:31.076Z,4.63
2018-06-14T06:20:00.190Z,4.80
2018-06-14T06:22:32.964Z,5.27
2018-06-14T06:25:01.834Z,5.33
2018-06-14T06:27:37.583Z,4.77
2018-06-14T06:30:06.836Z,5.53
2018-06-14T06:32:37.185Z,4.77
2018-06-14T06:35:07.601Z,5.30
2018-06-14T06:37:39.841Z,5.33
2018-06-14T06:40:08.710Z,5.87
2018-06-14T06:42:45.654Z,4.60
2018-06-14T06:45:15.105Z,4.70
2018-06-14T06:47:45.226Z,5.03
2018-06-14T06:50:14.417Z,5.27
2018-06-14T06:52:47.531Z,5.17
2018-06-14T06:55:16.309Z,5.10
2018-06-14T06:57:53.423Z,4.53
2018-06-14T07:00:22.258Z,4.47
2018-06-14T07:02:51.078Z,4.00
2018-06-14T07:05:22.754Z,3.83
2018-06-14T07:07:53.543Z,3.40
2018-06-14T07:10:23.096Z,2.63
2018-06-14T07:12:56.423Z,3.03
2018-06-14T07:15:26.327Z,3.33
2018-06-14T07:17:57.287Z,2.77
2018-06-14T07:20:26.358Z,3.00
2018-06-14T07:22:59.257Z,3.63
2018-06-14T07:25:28.438Z,2.53
2018-06-14T07:28:05.203Z,2.33
2018-06-14T07:30:33.977Z,2.47
2018-06-14T07:33:04.179Z,2.90
2018-06-14T07:35:33.332Z,3.47
2018-06-14T07:38:09.295Z,3.97
2018-06-14T07:40:38.097Z,2.80
2018-06-14T07:43:10.284Z,2.80
2018-06-14T07:45:39.109Z,2.53
2018-06-14T07:48:12.173Z,2.40
2018-06-14T07:50:41.245Z,2.90
2018-06-14T07:53:13.214Z,3.17
2018-06-14T07:55:42.178Z,3.50
2018-06-14T07:58:15.229Z,2.50
2018-06-14T08:00:44.101Z,3.37
2018-06-14T08:03:16.732Z,2.13
2018-06-14T08:05:51.726Z,2.50
2018-06-14T08:08:27.717Z,2.10
2018-06-14T08:10:57.654Z,3.17
2018-06-14T08:13:27.610Z,2.80
2018-06-14T08:15:58.194Z,2.30
2018-06-14T08:18:26.995Z,2.30
2018-06-14T08:21:21.647Z,2.20
2018-06-14T08:23:51.207Z,1.67
2018-06-14T08:26:45.157Z,1.97
2018-06-14T08:29:17.034Z,1.63
2018-06-14T08:31:46.186Z,1.97
2018-06-14T08:34:34.863Z,1.83
2018-06-14T08:37:03.646Z,1.67
2018-06-14T08:39:32.629Z,1.40
2018-06-14T08:42:04.467Z,1.47
2018-06-14T08:44:36.468Z,1.27
2018-06-14T08:47:08.047Z,1.50
2018-06-14T08:49:37.726Z,1.83
2018-06-14T08:52:07.236Z,2.03
2018-06-14T08:57:57.496Z,1.53
2018-06-14T09:00:27.016Z,1.70
2018-06-14T09:02:56.497Z,1.90
2018-06-14T09:05:39.729Z,1.40
2018-06-14T09:13:43.291Z,1.80
2018-06-14T09:16:17.205Z,1.47
2018-06-14T09:18:47.727Z,2.33
2018-06-14T09:21:17.225Z,1.97
2018-06-14T09:23:50.434Z,1.27
2018-06-14T09:26:24.175Z,1.43
2018-06-14T09:28:57.164Z,1.77
2018-06-14T09:31:29.638Z,1.30
2018-06-14T09:34:01.074Z,1.60
2018-06-14T09:36:31.117Z,1.47
2018-06-14T09:39:01.693Z,1.77
2018-06-14T09:41:31.943Z,1.50
2018-06-14T09:44:05.216Z,1.67
2018-06-14T09:46:35.171Z,1.40
2018-06-14T09:49:09.393Z,1.40
2018-06-14T09:51:41.976Z,1.33
2018-06-14T09:54:11.695Z,1.40
2018-06-14T09:56:44.232Z,1.37
2018-06-14T09:59:14.283Z,2.17
2018-06-14T10:01:43.430Z,1.10
2018-06-14T10:04:12.441Z,1.63
2018-06-14T10:06:42.389Z,1.70
2018-06-14T10:09:12.722Z,1.70
2018-06-14T10:11:43.109Z,1.23
2018-06-14T10:14:13.974Z,1.10
2018-06-14T10:16:42.809Z,1.33
2018-06-14T10:19:12.080Z,1.40
2018-06-14T10:21:41.326Z,31.07
2018-06-14T10:24:17.772Z,2.80
2018-06-14T10:26:46.639Z,1.60
2018-06-14T10:29:19.749Z,2.23
2018-06-14T10:31:49.347Z,1.73
2018-06-14T10:34:18.528Z,1.47
2018-06-14T10:36:47.477Z,1.00
2018-06-14T10:39:21.280Z,1.40
2018-06-14T10:41:51.422Z,1.43
2018-06-14T10:44:22.176Z,1.63
2018-06-14T10:46:51.371Z,1.23
2018-06-14T10:49:24.246Z,1.40
2018-06-14T10:51:53.212Z,1.70
2018-06-14T10:54:27.234Z,1.67
2018-06-14T10:56:56.301Z,1.60
2018-06-14T10:59:28.297Z,1.80
2018-06-14T11:01:57.045Z,1.30
2018-06-14T11:04:30.946Z,2.27
2018-06-14T11:07:01.167Z,1.97
2018-06-14T11:09:32.176Z,1.63
2018-06-14T11:12:03.022Z,1.83
2018-06-14T11:14:34.174Z,1.70
2018-06-14T11:17:06.208Z,9.47
2018-06-14T11:19:35.170Z,1.70
2018-06-14T11:22:07.265Z,1.40
2018-06-14T11:24:39.235Z,1.10
2018-06-14T11:27:08.651Z,1.10
2018-06-14T11:29:42.262Z,1.33
2018-06-14T11:32:13.383Z,1.20
2018-06-14T11:34:44.199Z,1.43
2018-06-14T11:37:14.479Z,1.23
2018-06-14T11:39:45.230Z,1.20
2018-06-14T11:42:15.338Z,1.40
2018-06-14T11:44:49.693Z,1.20
2018-06-14T11:47:22.445Z,1.07
2018-06-14T11:49:55.308Z,1.10
2018-06-14T11:52:26.497Z,1.10
2018-06-14T11:57:55.285Z,1.20
2018-06-14T12:00:26.694Z,1.00
2018-06-14T12:03:11.698Z,1.13
2018-06-14T12:05:42.972Z,1.40
2018-06-14T12:11:04.661Z,1.07
2018-06-14T12:13:34.729Z,1.07
2018-06-14T12:16:15.732Z,1.10
2018-06-14T12:18:44.915Z,0.90
2018-06-14T12:21:13.994Z,1.30
2018-06-14T12:23:44.034Z,1.23
2018-06-14T12:26:14.304Z,1.40
2018-06-14T12:31:47.355Z,1.10
2018-06-14T12:34:16.687Z,1.37
2018-06-14T12:36:45.871Z,1.10
2018-06-14T12:39:14.837Z,1.30
2018-06-14T12:41:43.673Z,1.67
2018-06-14T12:44:12.935Z,2.43
2018-06-14T12:46:41.809Z,1.33
2018-06-14T12:49:14.190Z,1.37
2018-06-14T12:54:47.193Z,1.27
2018-06-14T12:57:17.394Z,1.10
2018-06-14T12:59:50.622Z,1.23
2018-06-14T13:02:20.426Z,1.40
2018-06-14T13:04:49.682Z,1.13
2018-06-14T13:07:30.558Z,1.40
2018-06-14T13:12:48.745Z,1.27
2018-06-14T13:18:59.045Z,1.30
2018-06-14T13:24:43.368Z,1.13
2018-06-14T13:27:25.604Z,0.90
2018-06-14T13:30:09.887Z,1.40
2018-06-14T13:32:39.112Z,1.70
2018-06-14T13:38:21.291Z,1.60
2018-06-14T13:41:08.579Z,1.53
2018-06-14T13:43:48.102Z,1.83
2018-06-14T13:46:17.254Z,1.50
2018-06-14T13:48:46.791Z,2.17
2018-06-14T13:51:22.594Z,1.47
2018-06-14T13:53:53.773Z,1.87
2018-06-14T13:56:24.984Z,1.60
2018-06-14T13:58:55.212Z,2.10
2018-06-14T14:01:27.232Z,1.90
2018-06-14T14:03:58.640Z,1.73
2018-06-14T14:06:28.231Z,1.90
2018-06-14T14:08:58.487Z,2.27
2018-06-14T14:11:27.660Z,1.70
2018-06-14T14:13:57.085Z,2.20
2018-06-14T14:16:26.560Z,2.53
2018-06-14T14:21:34.019Z,2.30
2018-06-14T14:24:02.900Z,2.20
2018-06-14T14:26:32.418Z,2.00
2018-06-14T14:29:02.264Z,2.50
2018-06-14T14:31:32.660Z,2.40
2018-06-14T14:34:03.615Z,2.63
2018-06-14T14:36:34.318Z,2.30
2018-06-14T14:39:10.013Z,2.37
2018-06-14T14:41:39.490Z,3.07
2018-06-14T14:44:09.499Z,2.23
2018-06-14T14:46:39.170Z,3.17
2018-06-14T14:49:20.950Z,3.17
2018-06-14T14:51:53.200Z,2.40
2018-06-14T14:54:23.760Z,3.07
2018-06-14T14:56:53.035Z,3.50
2018-06-14T14:59:25.153Z,3.07
2018-06-14T15:01:57.718Z,3.17
2018-06-14T15:04:31.732Z,4.03
2018-06-14T15:07:02.352Z,3.50
2018-06-14T15:09:34.737Z,4.90
2018-06-14T15:12:18.441Z,4.17
2018-06-14T15:14:50.842Z,4.33
2018-06-14T15:17:27.461Z,4.27
2018-06-14T15:20:00.426Z,4.63
2018-06-14T15:22:41.530Z,4.67
2018-06-14T15:25:21.087Z,4.83
2018-06-14T15:27:54.411Z,4.67
2018-06-14T15:30:24.577Z,4.40
2018-06-14T15:32:56.756Z,4.07
2018-06-14T15:35:32.202Z,3.90
2018-06-14T15:38:02.243Z,4.90
2018-06-14T15:40:33.004Z,4.90
2018-06-14T15:43:02.272Z,4.30
2018-06-14T15:45:32.165Z,4.93
2018-06-14T15:48:01.842Z,3.83
2018-06-14T15:50:31.809Z,4.33
2018-06-14T15:53:04.707Z,4.67
2018-06-14T15:56:02.778Z,5.67
2018-06-14T15:58:34.719Z,4.60
2018-06-14T16:01:12.807Z,5.07
2018-06-14T16:03:54.521Z,4.87
2018-06-14T16:12:10.594Z,5.10
2018-06-14T16:14:39.962Z,5.40
2018-06-14T16:17:09.702Z,5.43
2018-06-14T16:19:46.362Z,5.17
2018-06-14T16:22:19.277Z,5.70
2018-06-14T16:24:48.427Z,6.23
2018-06-14T16:27:17.704Z,4.97
2018-06-14T16:29:48.788Z,6.20
2018-06-14T16:32:19.277Z,7.13
2018-06-14T16:34:48.621Z,7.03
2018-06-14T16:37:17.576Z,6.57
2018-06-14T16:39:51.543Z,6.60
2018-06-14T16:42:24.418Z,5.43
2018-06-14T16:44:53.868Z,5.17
2018-06-14T16:47:25.917Z,6.17
2018-06-14T16:49:54.859Z,5.90
2018-06-14T16:52:25.510Z,5.73
2018-06-14T16:54:58.288Z,5.03
2018-06-14T16:57:27.199Z,4.63
2018-06-14T17:00:02.844Z,5.90
2018-06-14T17:02:32.253Z,5.53
2018-06-14T17:05:18.308Z,5.37
2018-06-14T17:08:21.606Z,5.57
2018-06-14T17:10:52.191Z,4.80
2018-06-14T17:13:21.739Z,4.97
2018-06-14T17:15:51.734Z,4.47
2018-06-14T17:18:22.550Z,5.10
2018-06-14T17:20:52.202Z,4.83
2018-06-14T17:23:21.317Z,5.37
2018-06-14T17:25:51.184Z,5.10
2018-06-14T17:28:20.628Z,4.73
2018-06-14T17:30:51.620Z,5.00
2018-06-14T17:33:21.224Z,5.33
2018-06-14T17:35:53.170Z,5.67
2018-06-14T17:38:26.273Z,5.87
2018-06-14T17:40:56.425Z,5.57
2018-06-14T17:43:29.260Z,5.80
2018-06-14T17:45:59.440Z,5.10
2018-06-14T17:48:29.498Z,4.87
2018-06-14T17:50:59.246Z,5.13
2018-06-14T17:53:32.405Z,5.20
2018-06-14T17:56:07.899Z,4.87
2018-06-14T17:58:38.585Z,5.97
2018-06-14T18:01:08.723Z,5.50
2018-06-14T18:03:39.722Z,6.53
2018-06-14T18:06:10.670Z,5.57
2018-06-14T18:08:40.806Z,5.87
2018-06-14T18:11:11.197Z,5.03
2018-06-14T18:13:45.228Z,5.77
2018-06-14T18:16:15.839Z,4.67
2018-06-14T18:18:46.173Z,5.20
2018-06-14T18:21:17.262Z,5.33
2018-06-14T18:23:46.735Z,4.90
2018-06-14T18:26:16.194Z,4.87
2018-06-14T18:34:19.394Z,5.07
2018-06-14T18:36:49.040Z,5.37
2018-06-14T18:39:20.770Z,4.90
2018-06-14T18:41:50.183Z,5.37
2018-06-14T18:44:22.714Z,5.30
2018-06-14T18:46:52.204Z,4.73
2018-06-14T18:49:23.142Z,5.30
2018-06-14T18:51:52.184Z,4.97
2018-06-14T18:54:24.606Z,5.27
2018-06-14T18:56:54.481Z,4.97
2018-06-14T18:59:26.345Z,4.27
2018-06-14T19:01:55.376Z,5.23
2018-06-14T19:04:33.118Z,5.23
2018-06-14T19:07:02.294Z,6.10
2018-06-14T19:09:31.522Z,5.83
2018-06-14T19:12:01.251Z,6.07
2018-06-14T19:17:30.389Z,5.30
2018-06-14T19:20:01.523Z,4.80
2018-06-14T19:22:34.255Z,4.93
2018-06-14T19:25:03.303Z,4.53
2018-06-14T19:27:33.836Z,5.40
2018-06-14T19:30:03.732Z,5.20
2018-06-14T19:32:33.098Z,4.63
2018-06-14T19:35:06.320Z,5.07
2018-06-14T19:37:36.231Z,5.07
2018-06-14T19:40:08.693Z,5.27
2018-06-14T19:42:38.587Z,5.47
2018-06-14T19:45:09.401Z,5.07
2018-06-14T19:47:38.762Z,4.90
2018-06-14T19:50:11.677Z,5.57
2018-06-14T19:52:41.763Z,5.40
2018-06-14T19:55:17.859Z,5.03
2018-06-14T19:57:50.520Z,4.83
2018-06-14T20:00:21.338Z,5.13
2018-06-14T20:02:52.090Z,4.30
2018-06-14T20:05:27.645Z,4.80
2018-06-14T20:07:57.227Z,4.20
2018-06-14T20:10:26.810Z,4.53
2018-06-14T20:12:57.266Z,4.73
2018-06-14T20:15:26.729Z,5.00
2018-06-14T20:17:56.333Z,4.60
2018-06-14T20:20:26.529Z,4.37
2018-06-14T20:23:02.934Z,4.03
2018-06-14T20:25:59.510Z,4.93
2018-06-14T20:28:29.774Z,5.93
2018-06-14T20:31:01.191Z,4.60
2018-06-14T20:33:32.095Z,5.23
2018-06-14T20:36:32.233Z,5.00
2018-06-14T20:39:13.333Z,4.57
2018-06-14T20:41:55.014Z,4.93
2018-06-14T20:44:32.977Z,5.23
2018-06-14T20:47:21.396Z,6.57
2018-06-14T20:49:52.483Z,5.80
2018-06-14T20:55:33.969Z,5.60
2018-06-14T20:58:11.100Z,5.80
2018-06-14T21:00:45.791Z,7.33
2018-06-14T21:03:16.568Z,6.63
2018-06-14T21:05:47.360Z,7.03
2018-06-14T21:08:20.191Z,6.20
2018-06-14T21:10:50.372Z,6.50
2018-06-14T21:13:19.974Z,6.93
2018-06-14T21:15:53.686Z,8.07
2018-06-14T21:18:25.530Z,6.77
2018-06-14T21:20:54.729Z,8.00
2018-06-14T21:23:24.710Z,7.27
2018-06-14T21:25:55.339Z,8.13
2018-06-14T21:28:26.690Z,7.13
2018-06-14T21:30:57.671Z,7.87
2018-06-14T21:33:29.753Z,7.20
2018-06-14T21:36:00.266Z,8.60
2018-06-14T21:38:34.479Z,7.43
2018-06-14T21:41:04.795Z,8.00
2018-06-14T21:43:35.587Z,7.17
2018-06-14T21:46:05.576Z,9.00
2018-06-14T21:48:35.941Z,6.60
2018-06-14T21:51:05.127Z,7.63
2018-06-14T21:53:37.682Z,7.03
2018-06-14T21:56:09.689Z,7.60
2018-06-14T21:58:45.205Z,6.17
2018-06-14T22:01:16.836Z,7.57
2018-06-14T22:03:51.368Z,6.93
2018-06-14T22:06:20.954Z,6.17
2018-06-14T22:08:50.116Z,5.97
2018-06-14T22:11:20.565Z,6.40
2018-06-14T22:13:53.550Z,5.87
2018-06-14T22:16:23.319Z,6.30
2018-06-14T22:18:52.572Z,5.27
2018-06-14T22:21:22.506Z,5.70
2018-06-14T22:23:53.169Z,5.37
2018-06-14T22:26:22.220Z,6.93
2018-06-14T22:28:51.707Z,6.57
2018-06-14T22:31:21.084Z,6.03
2018-06-14T22:34:01.710Z,6.23
2018-06-14T22:36:32.372Z,5.83
2018-06-14T22:39:01.607Z,5.80
2018-06-14T22:41:30.696Z,6.40
2018-06-14T22:44:02.015Z,5.83
2018-06-14T22:46:31.470Z,6.50
2018-06-14T22:49:02.119Z,5.70
2018-06-14T22:51:50.191Z,6.27
2018-06-14T22:54:23.543Z,5.20
2018-06-14T22:56:53.038Z,7.23
2018-06-14T22:59:29.728Z,6.47
2018-06-14T23:01:59.287Z,5.83
2018-06-14T23:04:39.771Z,5.90
2018-06-14T23:07:10.523Z,6.70
2018-06-14T23:10:20.714Z,6.63
2018-06-14T23:12:50.343Z,7.13
2018-06-14T23:15:20.185Z,6.50
2018-06-14T23:17:50.594Z,7.77
2018-06-14T23:20:22.203Z,7.03
2018-06-14T23:22:53.189Z,8.07
2018-06-14T23:25:23.118Z,7.03
2018-06-14T23:27:52.746Z,7.73
2018-06-14T23:30:22.031Z,7.63
2018-06-14T23:32:51.590Z,7.63
2018-06-14T23:35:22.975Z,6.70
2018-06-14T23:37:56.157Z,6.80
2018-06-14T23:40:29.700Z,7.60
2018-06-14T23:42:58.711Z,7.37
2018-06-14T23:45:27.884Z,7.00
2018-06-14T23:47:58.764Z,7.60
2018-06-14T23:50:29.212Z,7.03
2018-06-14T23:53:00.884Z,6.97
2018-06-14T23:55:34.104Z,6.50
2018-06-14T23:58:03.621Z,7.30
